Time;durP1;ratioP1;P1;durP2;ratioP2;P2;SDS_P1;SDS_P2;PMS_P1;PMS_P2;Temp;Humidity;BMP_temperature;BMP_pressure;BME280_temperature;BME280_humidity;BME280_pressure;Samples;Min_cycle;Max_cycle;Signal;HPM_P1;HPM_P2
2022/07/31 00:01:25;;;;;;;9.48;7.18;;;;;;;18.74;100.00;92988.31;5088818;28;20044;-77
2022/07/31 00:03:52;;;;;;;9.10;7.05;;;;;;;18.58;100.00;92997.22;5088660;28;20040;-77
2022/07/31 00:06:19;;;;;;;8.55;6.47;;;;;;;18.15;100.00;92983.50;5089026;28;20052;-77
2022/07/31 00:08:46;;;;;;;11.18;7.35;;;;;;;17.81;100.00;92962.50;5088955;28;20044;-76
2022/07/31 00:11:14;;;;;;;13.30;7.97;;;;;;;18.13;100.00;92996.00;5088650;28;20051;-76
2022/07/31 00:13:40;;;;;;;18.83;7.50;;;;;;;18.18;100.00;92990.00;5088687;28;20051;-77
2022/07/31 00:16:07;;;;;;;8.73;7.32;;;;;;;18.20;100.00;92980.16;5088727;28;20514;-76
2022/07/31 00:18:35;;;;;;;10.63;7.43;;;;;;;18.27;100.00;92988.44;5088224;28;20498;-77
2022/07/31 00:21:03;;;;;;;8.88;7.53;;;;;;;18.25;100.00;92987.94;5088630;28;20093;-76
2022/07/31 00:23:30;;;;;;;7.97;6.93;;;;;;;18.28;100.00;93000.41;5088745;28;20047;-75
2022/07/31 00:25:57;;;;;;;9.65;7.30;;;;;;;18.30;100.00;92997.53;5088454;28;20048;-74
2022/07/31 00:28:24;;;;;;;11.50;7.95;;;;;;;18.30;100.00;92998.31;5088538;28;20504;-77
2022/07/31 00:30:51;;;;;;;10.20;7.78;;;;;;;18.29;100.00;92999.34;5088488;28;20048;-77
2022/07/31 00:33:18;;;;;;;12.07;8.23;;;;;;;18.21;100.00;92992.09;5088663;28;20044;-78
2022/07/31 00:35:46;;;;;;;11.05;8.75;;;;;;;18.22;100.00;92996.25;5088327;28;20035;-78
2022/07/31 00:38:12;;;;;;;12.55;7.78;;;;;;;18.29;100.00;93009.75;5088109;28;20751;-75
2022/07/31 00:40:46;;;;;;;10.80;7.57;;;;;;;18.30;100.00;93010.53;5088529;28;20090;-75
2022/07/31 00:43:13;;;;;;;9.43;6.78;;;;;;;18.14;100.00;93005.34;5092418;28;20123;-75
2022/07/31 00:45:40;;;;;;;9.65;7.25;;;;;;;18.11;100.00;93003.28;5092409;28;20471;-75
2022/07/31 00:48:07;;;;;;;11.63;8.10;;;;;;;18.11;100.00;93013.69;5092325;28;20039;-75
2022/07/31 00:50:34;;;;;;;10.70;7.75;;;;;;;18.07;100.00;93017.06;5092169;28;20043;-75
2022/07/31 00:53:03;;;;;;;11.57;8.27;;;;;;;18.00;100.00;93020.66;5092393;28;20153;-75
2022/07/31 00:55:31;;;;;;;10.27;7.60;;;;;;;17.99;100.00;93021.72;5103627;28;20092;-75
2022/07/31 00:57:58;;;;;;;12.82;8.60;;;;;;;17.99;100.00;93028.72;5110665;28;20520;-74
2022/07/31 01:00:25;;;;;;;9.70;7.55;;;;;;;17.95;100.00;93017.31;5112464;28;20040;-74
2022/07/31 01:02:51;;;;;;;10.95;8.00;;;;;;;17.73;100.00;92987.94;5112295;28;20101;-74
2022/07/31 01:05:18;;;;;;;10.32;7.32;;;;;;;17.86;100.00;93019.63;5112438;28;20059;-75
2022/07/31 01:07:45;;;;;;;11.30;7.32;;;;;;;17.83;100.00;93018.31;5112317;28;20043;-74
2022/07/31 01:10:22;;;;;;;8.73;7.28;;;;;;;17.82;100.00;93011.56;5111938;28;20048;-74
2022/07/31 01:12:55;;;;;;;9.65;7.25;;;;;;;17.83;100.00;93013.13;5112318;28;20052;-74
2022/07/31 01:15:24;;;;;;;10.40;7.30;;;;;;;17.86;100.00;93017.81;5111999;28;20330;-75
2022/07/31 01:18:11;;;;;;;9.05;6.82;;;;;;;17.80;100.00;93023.25;5112018;28;20096;-74
2022/07/31 01:20:41;;;;;;;9.55;6.93;;;;;;;17.79;100.00;93029.50;5112024;28;20520;-74
2022/07/31 01:23:18;;;;;;;9.30;6.75;;;;;;;17.80;100.00;93021.44;5102623;28;20040;-74
2022/07/31 01:25:59;;;;;;;10.68;6.32;;;;;;;17.76;100.00;93020.41;5091713;28;20048;-74
2022/07/31 01:28:57;;;;;;;9.38;6.53;;;;;;;17.75;100.00;93024.84;5091493;28;20044;-74
2022/07/31 01:31:30;;;;;;;12.18;6.68;;;;;;;17.68;100.00;93016.50;5091260;28;20541;-74
2022/07/31 01:34:03;;;;;;;8.70;6.45;;;;;;;17.58;100.00;93003.50;5091654;28;20109;-74
2022/07/31 01:36:34;;;;;;;8.93;6.28;;;;;;;17.66;100.00;93010.78;5091344;28;20054;-74
2022/07/31 01:39:02;;;;;;;10.73;6.13;;;;;;;17.65;100.00;93008.44;5091055;28;20060;-74
2022/07/31 01:41:33;;;;;;;7.80;5.65;;;;;;;17.66;100.00;93015.19;5091382;28;20503;-74
2022/07/31 01:44:04;;;;;;;10.18;5.95;;;;;;;17.62;100.00;93020.91;5091566;28;20661;-74
2022/07/31 01:46:33;;;;;;;6.28;5.13;;;;;;;17.59;100.00;93018.81;5090944;28;20048;-75
2022/07/31 01:49:02;;;;;;;7.25;5.00;;;;;;;17.56;100.00;93016.75;5091377;28;20447;-75
2022/07/31 01:51:30;;;;;;;9.18;4.57;;;;;;;17.52;100.00;93023.50;5091341;28;20131;-75
2022/07/31 01:53:59;;;;;;;6.18;4.40;;;;;;;17.49;100.00;93036.97;5089870;28;20520;-75
2022/07/31 01:56:27;;;;;;;6.35;4.63;;;;;;;17.47;100.00;93039.84;5091187;28;20436;-75
2022/07/31 01:58:55;;;;;;;5.68;4.65;;;;;;;17.36;100.00;93030.47;5090748;28;20138;-74
2022/07/31 02:01:25;;;;;;;7.88;4.40;;;;;;;17.42;100.00;93036.44;5091078;28;20048;-75
2022/07/31 02:03:53;;;;;;;6.50;4.05;;;;;;;17.45;100.00;93039.31;5090980;28;20044;-75
2022/07/31 02:06:22;;;;;;;5.50;4.53;;;;;;;17.43;100.00;93035.41;5090643;28;20052;-75
2022/07/31 02:08:52;;;;;;;6.25;4.35;;;;;;;17.23;100.00;93024.72;5090987;28;20440;-75
2022/07/31 02:11:19;;;;;;;8.48;4.55;;;;;;;17.25;100.00;93032.25;5088712;28;20346;-75
2022/07/31 02:13:48;;;;;;;6.40;4.35;;;;;;;17.19;100.00;93026.28;5089112;28;20421;-75
2022/07/31 02:16:16;;;;;;;6.97;4.68;;;;;;;17.14;100.00;93026.28;5090644;28;20105;-75
2022/07/31 02:18:46;;;;;;;6.18;4.35;;;;;;;17.18;100.00;93022.09;5090329;28;20562;-75
2022/07/31 02:21:13;;;;;;;6.93;4.45;;;;;;;17.22;100.00;93023.16;5090548;28;20047;-75
2022/07/31 02:23:40;;;;;;;6.68;4.00;;;;;;;17.21;100.00;93024.19;5090410;28;20451;-75
2022/07/31 02:26:08;;;;;;;6.95;4.20;;;;;;;17.19;100.00;93025.50;5090577;28;20040;-75
2022/07/31 02:28:37;;;;;;;6.00;4.00;;;;;;;17.18;100.00;93027.28;5090438;28;20044;-75
2022/07/31 02:31:06;;;;;;;8.43;4.20;;;;;;;17.16;100.00;93024.19;5090221;28;20515;-76
2022/07/31 02:33:35;;;;;;;5.35;3.78;;;;;;;17.12;100.00;93033.50;5090017;28;20397;-76
2022/07/31 02:36:05;;;;;;;6.20;3.90;;;;;;;17.12;100.00;93038.69;5090498;28;20117;-75
2022/07/31 02:38:33;;;;;;;6.03;4.18;;;;;;;17.05;100.00;93035.56;5090055;28;20048;-77
2022/07/31 02:41:03;;;;;;;6.00;4.07;;;;;;;17.00;100.00;93038.91;5090433;28;20044;-77
2022/07/31 02:43:33;;;;;;;5.53;3.88;;;;;;;17.03;100.00;93032.47;5089903;28;20043;-76
2022/07/31 02:46:00;;;;;;;6.75;4.03;;;;;;;17.04;100.00;93039.97;5089888;28;20501;-76
2022/07/31 02:48:28;;;;;;;9.48;4.10;;;;;;;17.02;100.00;93026.44;5089894;28;20421;-76
2022/07/31 02:50:55;;;;;;;5.45;3.90;;;;;;;17.09;100.00;93032.19;5089658;28;20554;-76
2022/07/31 02:53:24;;;;;;;6.55;3.22;;;;;;;17.03;100.00;93028.03;5089669;28;20433;-76
2022/07/31 02:55:51;;;;;;;5.47;3.97;;;;;;;17.00;100.00;93012.16;5089613;28;20845;-76
2022/07/31 02:58:18;;;;;;;8.15;4.68;;;;;;;17.11;100.00;93026.00;5089982;28;20069;-76
2022/07/31 03:00:45;;;;;;;7.80;4.50;;;;;;;17.07;100.00;93033.50;5089838;28;20048;-76
2022/07/31 03:03:12;;;;;;;6.05;4.43;;;;;;;16.97;100.00;93018.63;5089672;28;20424;-77
2022/07/31 03:05:39;;;;;;;6.70;4.60;;;;;;;17.05;100.00;93036.34;5089703;28;20100;-77
2022/07/31 03:08:06;;;;;;;10.93;4.85;;;;;;;16.99;100.00;93037.31;5089543;28;20555;-77
2022/07/31 03:10:34;;;;;;;8.15;4.95;;;;;;;16.95;100.00;93038.88;5089742;28;20040;-77
2022/07/31 03:13:02;;;;;;;6.22;4.32;;;;;;;16.95;100.00;93039.66;5089548;28;20041;-77
2022/07/31 03:15:30;;;;;;;6.88;4.65;;;;;;;16.86;100.00;93041.19;5089469;28;20040;-77
2022/07/31 03:17:58;;;;;;;7.03;4.32;;;;;;;16.79;100.00;93040.59;5089420;28;20040;-77
2022/07/31 03:20:26;;;;;;;5.38;4.07;;;;;;;16.77;100.00;93046.06;5089267;28;20093;-77
2022/07/31 03:22:53;;;;;;;5.95;4.55;;;;;;;16.73;100.00;93047.59;5089199;28;20048;-76
2022/07/31 03:25:20;;;;;;;6.55;4.28;;;;;;;16.71;100.00;93049.66;5089306;28;20048;-75
2022/07/31 03:27:49;;;;;;;8.50;4.25;;;;;;;16.77;100.00;93056.44;5089256;28;20075;-75
2022/07/31 03:30:23;;;;;;;7.90;4.35;;;;;;;16.79;100.00;93048.38;5089402;28;20172;-75
2022/07/31 03:32:50;;;;;;;6.95;4.60;;;;;;;16.72;100.00;93050.44;5089132;28;20043;-75
2022/07/31 03:35:17;;;;;;;6.32;4.32;;;;;;;16.77;100.00;93058.25;5089366;28;20101;-75
2022/07/31 03:37:44;;;;;;;8.23;4.57;;;;;;;16.79;100.00;93050.97;5089544;28;20050;-75
2022/07/31 03:40:11;;;;;;;10.55;5.72;;;;;;;16.79;100.00;93053.56;5089030;28;20105;-76
2022/07/31 03:42:38;;;;;;;10.93;6.57;;;;;;;16.85;100.00;93051.81;5089303;28;20047;-75
2022/07/31 03:45:09;;;;;;;17.38;7.15;;;;;;;16.85;100.00;93052.56;5089167;28;20048;-76
2022/07/31 03:47:36;;;;;;;17.05;7.05;;;;;;;16.92;100.00;93055.72;5091189;28;20044;-76
2022/07/31 03:50:04;;;;;;;11.95;6.78;;;;;;;16.89;100.00;93053.63;5102002;28;20043;-76
2022/07/31 03:52:32;;;;;;;20.05;9.18;;;;;;;16.88;100.00;93057.25;5094776;28;20105;-76
2022/07/31 03:54:59;;;;;;;16.20;8.90;;;;;;;16.87;100.00;93060.09;5097974;28;20051;-76
2022/07/31 03:57:28;;;;;;;17.85;9.00;;;;;;;16.90;100.00;93059.59;5088485;28;20094;-76
2022/07/31 03:59:56;;;;;;;20.27;10.77;;;;;;;16.88;100.00;93059.84;5089107;28;20043;-76
2022/07/31 04:02:27;;;;;;;26.98;11.50;;;;;;;16.85;100.00;93044.78;5091650;28;20040;-76
2022/07/31 04:04:53;;;;;;;14.48;8.25;;;;;;;16.78;100.00;93062.41;5100024;28;20101;-75
2022/07/31 04:07:20;;;;;;;14.40;8.50;;;;;;;16.73;100.00;93052.78;5088796;28;20044;-76
2022/07/31 04:09:47;;;;;;;16.17;8.05;;;;;;;16.93;100.00;93065.06;5103259;28;20064;-76
2022/07/31 04:12:14;;;;;;;13.32;7.70;;;;;;;16.96;100.00;93071.56;5092055;28;20040;-76
2022/07/31 04:14:40;;;;;;;14.15;8.43;;;;;;;16.87;100.00;93071.28;5099767;28;20051;-76
2022/07/31 04:17:07;;;;;;;12.45;8.07;;;;;;;16.97;100.00;93067.94;5087219;28;20047;-75
2022/07/31 04:19:36;;;;;;;17.00;8.50;;;;;;;17.06;100.00;93066.47;5099022;28;20047;-76
2022/07/31 04:22:03;;;;;;;20.45;9.88;;;;;;;17.24;100.00;93064.44;5105949;28;20092;-76
2022/07/31 04:24:29;;;;;;;20.92;9.50;;;;;;;17.33;100.00;93049.16;5099864;28;20047;-76
2022/07/31 04:26:57;;;;;;;25.90;10.45;;;;;;;17.41;100.00;93059.03;5092092;28;20125;-76
2022/07/31 04:29:27;;;;;;;23.00;10.10;;;;;;;17.42;100.00;93042.44;5101891;28;20438;-76
2022/07/31 04:31:54;;;;;;;28.67;12.00;;;;;;;17.74;100.00;93062.22;5089255;28;20048;-76
2022/07/31 04:34:21;;;;;;;27.42;11.40;;;;;;;17.89;100.00;93065.88;5107186;28;20043;-76
2022/07/31 04:36:49;;;;;;;31.08;12.93;;;;;;;17.97;100.00;93062.75;5090440;28;20048;-75
2022/07/31 04:39:15;;;;;;;30.60;13.80;;;;;;;18.04;100.00;93062.50;5095185;28;20585;-75
2022/07/31 04:41:43;;;;;;;27.95;11.20;;;;;;;18.05;100.00;93066.66;5095915;28;20098;-75
2022/07/31 04:44:10;;;;;;;29.65;13.02;;;;;;;18.14;100.00;93065.16;5103312;28;20044;-75
2022/07/31 04:46:37;;;;;;;29.00;12.68;;;;;;;18.18;100.00;93069.84;5088287;28;20044;-75
2022/07/31 04:49:03;;;;;;;32.53;12.95;;;;;;;18.09;100.00;93062.53;5091675;28;20044;-75
2022/07/31 04:51:30;;;;;;;26.17;12.52;;;;;;;18.02;100.00;93052.38;5101211;28;20109;-75
2022/07/31 04:53:58;;;;;;;24.58;13.35;;;;;;;18.20;100.00;93059.94;5103673;28;20044;-76
2022/07/31 04:56:34;;;;;;;28.48;13.93;;;;;;;18.06;100.00;93067.44;5094856;28;20102;-78
2022/07/31 04:59:03;;;;;;;24.05;12.23;;;;;;;18.15;100.00;93076.34;5105989;28;20052;-76
2022/07/31 05:01:30;;;;;;;21.90;12.02;;;;;;;18.23;100.00;93075.03;5094827;28;20048;-76
2022/07/31 05:03:57;;;;;;;24.80;13.25;;;;;;;18.26;100.00;93088.28;5100700;28;20044;-75
2022/07/31 05:06:32;;;;;;;25.08;13.13;;;;;;;18.35;100.00;93082.56;5102673;28;20562;-75
2022/07/31 05:09:01;;;;;;;27.05;14.60;;;;;;;18.43;100.00;93085.41;5096592;28;20092;-76
2022/07/31 05:11:27;;;;;;;24.77;12.75;;;;;;;18.51;100.00;93086.69;5097639;28;20040;-76
2022/07/31 05:13:56;;;;;;;26.60;12.80;;;;;;;18.61;100.00;93082.53;5102530;28;20048;-76
2022/07/31 05:16:24;;;;;;;27.58;13.32;;;;;;;18.72;100.00;93088.50;5101667;28;20044;-76
2022/07/31 05:18:51;;;;;;;30.63;12.73;;;;;;;18.71;100.00;93072.13;5094243;28;20048;-75
2022/07/31 05:21:18;;;;;;;29.58;14.25;;;;;;;18.82;100.00;93089.25;5097641;28;20055;-75
2022/07/31 05:23:47;;;;;;;28.65;13.38;;;;;;;18.89;100.00;93088.97;5102578;28;20044;-75
2022/07/31 05:26:15;;;;;;;22.65;12.38;;;;;;;18.96;100.00;93075.69;5102758;28;20443;-76
2022/07/31 05:28:43;;;;;;;23.73;12.32;;;;;;;19.01;100.00;93080.09;5097449;28;20040;-75
2022/07/31 05:31:10;;;;;;;21.20;11.52;;;;;;;19.08;100.00;93081.41;5104189;28;20036;-75
2022/07/31 05:33:37;;;;;;;24.15;11.93;;;;;;;19.22;100.00;93088.66;5106553;28;20043;-75
2022/07/31 05:36:05;;;;;;;21.42;12.40;;;;;;;19.27;100.00;93088.63;5098952;28;20144;-75
2022/07/31 05:38:32;;;;;;;20.13;11.65;;;;;;;19.35;100.00;93087.31;5098796;28;20052;-75
2022/07/31 05:40:58;;;;;;;22.27;10.93;;;;;;;19.42;100.00;93084.38;5106077;28;20044;-74
2022/07/31 05:43:27;;;;;;;22.92;11.98;;;;;;;19.61;100.00;93093.16;5103773;28;20104;-74
2022/07/31 05:45:54;;;;;;;20.35;11.02;;;;;;;19.74;100.00;93091.00;5094220;28;20140;-74
2022/07/31 05:48:22;;;;;;;18.10;10.75;;;;;;;19.89;100.00;93088.31;5103577;28;20044;-74
2022/07/31 05:50:50;;;;;;;19.42;10.73;;;;;;;20.10;100.00;93095.25;5099999;28;20451;-74
2022/07/31 05:53:17;;;;;;;18.67;11.27;;;;;;;20.28;100.00;93093.81;5102276;28;20055;-75
2022/07/31 05:55:45;;;;;;;16.77;10.18;;;;;;;20.55;100.00;93095.94;5105849;28;20054;-77
2022/07/31 05:58:12;;;;;;;13.40;9.88;;;;;;;20.69;100.00;93092.69;5100079;28;20100;-77
2022/07/31 06:00:43;;;;;;;13.20;9.18;;;;;;;21.01;100.00;93096.56;5096394;28;20098;-77
2022/07/31 06:03:11;;;;;;;15.38;10.43;;;;;;;21.23;100.00;93092.66;5091162;28;20433;-76
2022/07/31 06:05:38;;;;;;;12.40;8.75;;;;;;;21.27;100.00;93104.13;5090936;28;20451;-77
2022/07/31 06:08:08;;;;;;;12.77;9.05;;;;;;;21.15;100.00;93106.34;5091153;28;20066;-75
2022/07/31 06:10:35;;;;;;;12.32;8.85;;;;;;;21.02;100.00;93102.56;5090602;28;20052;-77
2022/07/31 06:13:02;;;;;;;11.85;8.60;;;;;;;21.01;100.00;93093.94;5092423;28;20028;-77
2022/07/31 06:15:29;;;;;;;13.95;9.10;;;;;;;21.04;100.00;93095.22;5108231;28;20399;-77
2022/07/31 06:17:58;;;;;;;13.23;9.23;;;;;;;21.00;100.00;93095.00;5109168;28;20381;-77
2022/07/31 06:20:25;;;;;;;12.13;9.02;;;;;;;20.92;100.00;93093.00;5090549;28;20098;-77
2022/07/31 06:22:51;;;;;;;12.90;9.32;;;;;;;20.92;100.00;93093.78;5090585;28;20048;-77
2022/07/31 06:25:18;;;;;;;13.43;9.63;;;;;;;20.96;100.00;93100.00;5092488;28;20509;-77
2022/07/31 06:27:45;;;;;;;12.73;9.15;;;;;;;20.93;100.00;93091.94;5090880;28;20047;-77
2022/07/31 06:30:13;;;;;;;14.27;10.30;;;;;;;21.00;100.00;93089.78;5090480;28;20055;-77
2022/07/31 06:32:40;;;;;;;12.63;8.43;;;;;;;21.04;100.00;93090.78;5090693;28;20052;-77
2022/07/31 06:35:09;;;;;;;12.60;8.75;;;;;;;21.04;100.00;93100.44;5105321;28;20094;-78
2022/07/31 06:37:36;;;;;;;14.20;9.15;;;;;;;21.10;100.00;93096.72;5103195;28;20039;-74
2022/07/31 06:40:03;;;;;;;15.75;9.07;;;;;;;21.20;100.00;93095.84;5096281;28;20047;-75
2022/07/31 06:42:30;;;;;;;13.00;8.88;;;;;;;21.26;100.00;93107.78;5100602;28;20551;-74
2022/07/31 06:44:57;;;;;;;15.30;9.07;;;;;;;21.27;100.00;93103.31;5101909;28;20047;-75
2022/07/31 06:47:25;;;;;;;13.15;8.88;;;;;;;21.22;100.00;93098.94;5096921;28;20051;-75
2022/07/31 06:49:52;;;;;;;14.10;9.13;;;;;;;21.25;100.00;93105.44;5101009;28;20052;-75
2022/07/31 06:52:21;;;;;;;12.88;9.18;;;;;;;21.21;100.00;93106.00;5105060;28;20097;-75
2022/07/31 06:54:47;;;;;;;13.73;9.38;;;;;;;21.28;100.00;93108.28;5099008;28;20043;-75
2022/07/31 06:57:14;;;;;;;13.18;8.80;;;;;;;21.29;100.00;93115.06;5096621;28;20059;-74
2022/07/31 06:59:41;;;;;;;15.45;9.85;;;;;;;21.21;100.00;93111.22;5104131;28;20051;-74
2022/07/31 07:02:08;;;;;;;12.35;8.95;;;;;;;21.13;100.00;93119.69;5103753;28;20050;-76
2022/07/31 07:04:35;;;;;;;12.65;9.02;;;;;;;21.22;100.00;93112.00;5096335;28;20043;-76
2022/07/31 07:07:02;;;;;;;16.73;10.57;;;;;;;21.31;100.00;93112.16;5099424;28;20052;-76
2022/07/31 07:09:30;;;;;;;15.00;10.75;;;;;;;21.37;100.00;93111.06;5104748;28;20044;-76
2022/07/31 07:11:57;;;;;;;14.85;10.85;;;;;;;21.31;100.00;93101.72;5092346;28;20044;-75
2022/07/31 07:14:24;;;;;;;14.05;10.35;;;;;;;21.44;100.00;93111.47;5104592;28;20124;-76
2022/07/31 07:16:50;;;;;;;13.05;9.98;;;;;;;20.98;100.00;93114.63;5091205;28;20609;-76
2022/07/31 07:19:17;;;;;;;15.02;10.45;;;;;;;20.82;100.00;93110.28;5098753;28;20116;-76
2022/07/31 07:21:44;;;;;;;17.05;11.52;;;;;;;20.74;100.00;93104.91;5104138;28;20082;-76
2022/07/31 07:24:11;;;;;;;18.33;12.85;;;;;;;20.50;100.00;93111.63;5097969;28;20131;-76
2022/07/31 07:26:39;;;;;;;19.85;13.02;;;;;;;20.16;100.00;93097.56;5106553;28;20075;-75
2022/07/31 07:29:06;;;;;;;16.05;12.55;;;;;;;20.49;100.00;93099.63;5096376;28;20040;-75
2022/07/31 07:31:32;;;;;;;19.85;12.05;;;;;;;20.69;100.00;93098.66;5096978;28;20056;-75
2022/07/31 07:34:00;;;;;;;15.75;11.18;;;;;;;20.91;100.00;93099.25;5103816;28;20040;-75
2022/07/31 07:36:27;;;;;;;18.92;12.25;;;;;;;20.85;100.00;93100.34;5101199;28;20050;-75
2022/07/31 07:38:54;;;;;;;16.10;10.77;;;;;;;20.48;100.00;93105.13;5095247;28;20043;-75
2022/07/31 07:41:21;;;;;;;17.40;11.70;;;;;;;20.44;100.00;93097.06;5100186;28;20047;-75
2022/07/31 07:43:49;;;;;;;17.25;11.48;;;;;;;20.05;100.00;93096.06;5103936;28;20051;-75
2022/07/31 07:46:15;;;;;;;15.25;10.82;;;;;;;20.18;100.00;93091.28;5089649;28;20048;-76
2022/07/31 07:48:42;;;;;;;14.10;9.48;;;;;;;20.06;100.00;93097.63;5103773;28;20043;-76
2022/07/31 07:51:09;;;;;;;14.27;9.55;;;;;;;20.29;100.00;93088.31;5088364;28;20438;-76
2022/07/31 07:53:36;;;;;;;18.02;11.55;;;;;;;20.23;100.00;93094.63;5103710;28;20047;-76
2022/07/31 07:56:03;;;;;;;14.45;9.23;;;;;;;20.06;100.00;93092.41;5095955;28;20562;-76
2022/07/31 07:58:30;;;;;;;13.80;9.07;;;;;;;20.10;100.00;93095.25;5097383;28;20052;-76
2022/07/31 08:00:58;;;;;;;12.43;9.77;;;;;;;19.93;100.00;93096.38;5103386;28;20440;-76
2022/07/31 08:03:25;;;;;;;11.63;8.73;;;;;;;19.84;100.00;93088.34;5100789;28;20451;-76
2022/07/31 08:05:51;;;;;;;16.27;11.10;;;;;;;19.76;100.00;93091.50;5094786;28;20097;-76
2022/07/31 08:08:18;;;;;;;14.93;10.10;;;;;;;19.88;100.00;93093.78;5100758;28;20050;-76
2022/07/31 08:10:45;;;;;;;13.25;9.77;;;;;;;19.77;100.00;93099.06;5085661;28;20051;-76
2022/07/31 08:13:12;;;;;;;12.80;9.50;;;;;;;19.62;100.00;93101.75;5093119;28;20497;-76
2022/07/31 08:15:38;;;;;;;15.38;8.98;;;;;;;19.56;100.00;93103.59;5097039;28;20520;-76
2022/07/31 08:18:06;;;;;;;12.30;8.40;;;;;;;19.35;100.00;93098.47;5103300;28;20094;-76
2022/07/31 08:20:33;;;;;;;12.95;9.77;;;;;;;19.38;100.00;93088.59;5099882;28;20107;-76
2022/07/31 08:23:00;;;;;;;11.82;8.55;;;;;;;19.53;100.00;93101.53;5094785;28;20047;-76
2022/07/31 08:25:27;;;;;;;13.52;8.70;;;;;;;19.60;100.00;93102.03;5108406;28;20044;-76
2022/07/31 08:27:53;;;;;;;14.55;9.63;;;;;;;19.48;100.00;93110.16;5108414;28;20047;-76
2022/07/31 08:30:20;;;;;;;14.15;9.65;;;;;;;19.56;100.00;93116.63;5096521;28;20390;-76
2022/07/31 08:32:47;;;;;;;12.32;9.43;;;;;;;19.23;100.00;93101.41;5095531;28;20501;-76
2022/07/31 08:35:15;;;;;;;13.40;9.20;;;;;;;19.12;100.00;93104.31;5102750;28;20055;-76
2022/07/31 08:37:42;;;;;;;14.63;10.10;;;;;;;18.92;100.00;93088.44;5101072;28;20074;-76
2022/07/31 08:40:10;;;;;;;14.93;10.10;;;;;;;19.07;100.00;93107.72;5094864;28;20063;-77
2022/07/31 08:42:36;;;;;;;13.98;10.43;;;;;;;18.98;100.00;93106.66;5098617;28;20040;-76
2022/07/31 08:45:06;;;;;;;14.40;10.27;;;;;;;19.02;100.00;93118.88;5102941;28;20086;-76
2022/07/31 08:47:35;;;;;;;14.45;10.43;;;;;;;19.07;100.00;93112.91;5088195;28;20044;-77
2022/07/31 08:50:03;;;;;;;18.05;12.10;;;;;;;19.30;100.00;93127.16;5088048;28;20044;-76
2022/07/31 08:52:34;;;;;;;17.02;11.77;;;;;;;19.34;100.00;93125.56;5088371;28;20052;-77
2022/07/31 08:55:02;;;;;;;16.48;11.77;;;;;;;19.36;100.00;93112.28;5088123;28;20555;-77
2022/07/31 08:57:29;;;;;;;19.10;11.90;;;;;;;19.67;100.00;93132.22;5087941;28;20493;-76
2022/07/31 08:59:56;;;;;;;21.70;12.40;;;;;;;19.80;100.00;93128.25;5088145;28;20063;-77
2022/07/31 09:02:23;;;;;;;17.90;12.23;;;;;;;19.99;100.00;93129.19;5089061;28;20447;-77
2022/07/31 09:04:50;;;;;;;17.02;12.10;;;;;;;20.18;100.00;93131.16;5091701;28;20093;-77
2022/07/31 09:07:17;;;;;;;19.48;11.65;;;;;;;20.42;100.00;93131.25;5091778;28;20503;-76
2022/07/31 09:09:46;;;;;;;15.93;12.05;;;;;;;20.32;100.00;93135.78;5091901;28;20486;-77
2022/07/31 09:12:13;;;;;;;19.65;11.48;;;;;;;20.58;100.00;93136.34;5093394;28;20428;-76
2022/07/31 09:14:47;;;;;;;17.58;11.35;;;;;;;20.68;100.00;93125.03;5091951;28;20444;-76
2022/07/31 09:17:14;;;;;;;14.90;10.05;;;;;;;20.93;100.00;93137.09;5091802;28;20101;-78
2022/07/31 09:19:44;;;;;;;16.45;10.60;;;;;;;21.00;100.00;93141.22;5111944;28;20509;-77
2022/07/31 09:22:20;;;;;;;14.35;10.00;;;;;;;21.04;100.00;93142.22;5112274;28;20051;-78
2022/07/31 09:24:48;;;;;;;12.57;9.30;;;;;;;20.99;100.00;93116.94;5109820;28;20040;-77
2022/07/31 09:27:16;;;;;;;14.10;9.48;;;;;;;21.04;100.00;93144.84;5091029;28;20547;-78
2022/07/31 09:29:44;;;;;;;11.93;8.52;;;;;;;20.54;100.00;93141.34;5091790;28;20040;-78
2022/07/31 09:32:13;;;;;;;13.93;9.98;;;;;;;20.46;100.00;93126.25;5091275;28;20060;-77
2022/07/31 09:34:40;;;;;;;13.55;9.32;;;;;;;20.54;100.00;93140.56;5091617;28;20044;-78
2022/07/31 09:37:11;;;;;;;13.65;9.13;;;;;;;20.28;100.00;93149.34;5091041;28;20493;-78
2022/07/31 09:39:39;;;;;;;16.13;10.32;;;;;;;20.06;100.00;93135.94;5091646;28;20044;-77
2022/07/31 09:42:08;;;;;;;14.02;9.73;;;;;;;20.23;100.00;93130.38;5091038;28;20047;-78
2022/07/31 09:44:40;;;;;;;14.63;10.23;;;;;;;20.42;100.00;93117.44;5091388;28;20097;-78
2022/07/31 09:47:07;;;;;;;16.58;11.55;;;;;;;20.69;100.00;93124.00;5092784;28;20044;-78
2022/07/31 09:49:35;;;;;;;15.15;10.73;;;;;;;20.54;100.00;93130.91;5104559;28;20176;-77
2022/07/31 09:52:02;;;;;;;15.30;11.82;;;;;;;20.99;100.00;93131.84;5105759;28;20093;-78
2022/07/31 09:54:30;;;;;;;15.75;11.52;;;;;;;21.02;100.00;93113.78;5097609;28;20051;-78
2022/07/31 09:56:58;;;;;;;17.27;12.15;;;;;;;21.04;100.00;93118.72;5099775;28;20048;-78
2022/07/31 09:59:26;;;;;;;16.25;12.32;;;;;;;20.98;100.00;93127.66;5106206;28;20044;-77
2022/07/31 10:01:53;;;;;;;18.55;11.68;;;;;;;20.80;100.00;93104.59;5102151;28;20043;-78
2022/07/31 10:04:22;;;;;;;17.15;12.25;;;;;;;21.47;100.00;93120.59;5097600;28;20048;-78
2022/07/31 10:06:50;;;;;;;17.55;13.25;;;;;;;22.11;100.00;93120.31;5102805;28;20058;-78
2022/07/31 10:09:19;;;;;;;13.88;10.93;;;;;;;22.14;100.00;93122.34;5106147;28;20047;-78
2022/07/31 10:11:47;;;;;;;15.32;11.63;;;;;;;22.32;100.00;93114.00;5093625;28;20546;-77
2022/07/31 10:14:22;;;;;;;15.65;11.93;;;;;;;22.05;100.00;93123.28;5104137;28;20492;-78
2022/07/31 10:16:52;;;;;;;16.23;11.80;;;;;;;22.11;100.00;93109.06;5098810;28;20046;-78
2022/07/31 10:19:21;;;;;;;18.02;13.15;;;;;;;22.51;100.00;93093.81;5097192;28;20055;-79
2022/07/31 10:21:54;;;;;;;18.00;12.20;;;;;;;23.10;100.00;93095.19;5104986;28;20047;-78
2022/07/31 10:24:23;;;;;;;16.33;11.60;;;;;;;23.73;100.00;93100.78;5105342;28;20065;-78
2022/07/31 10:26:51;;;;;;;17.20;11.68;;;;;;;24.03;99.64;93097.78;5097827;28;20136;-78
2022/07/31 10:29:19;;;;;;;14.55;11.38;;;;;;;23.95;97.94;93098.47;5098506;28;20051;-79
2022/07/31 10:31:46;;;;;;;16.33;11.98;;;;;;;23.39;100.00;93103.81;5090622;28;20089;-78
2022/07/31 10:34:15;;;;;;;15.90;11.27;;;;;;;23.17;98.03;93089.53;5104903;28;20087;-78
2022/07/31 10:36:45;;;;;;;14.13;10.60;;;;;;;23.38;97.70;93102.28;5099994;28;20400;-78
2022/07/31 10:39:20;;;;;;;14.63;10.93;;;;;;;22.77;99.09;93109.09;5096054;28;20058;-78
2022/07/31 10:41:53;;;;;;;16.13;11.77;;;;;;;23.23;100.00;93091.78;5098828;28;20110;-78
2022/07/31 10:44:30;;;;;;;21.58;12.10;;;;;;;23.76;100.00;93088.91;5103091;28;20048;-78
2022/07/31 10:46:57;;;;;;;13.88;10.43;;;;;;;23.59;95.80;93082.44;5090537;28;20391;-79
2022/07/31 10:49:40;;;;;;;13.68;10.35;;;;;;;23.91;94.93;93090.41;5096714;28;20515;-78
2022/07/31 10:52:07;;;;;;;18.92;10.38;;;;;;;24.40;95.43;93085.38;5097086;28;20505;-79
2022/07/31 10:54:39;;;;;;;11.93;9.27;;;;;;;24.58;89.73;93075.00;5097152;28;20093;-78
2022/07/31 10:57:06;;;;;;;13.73;10.00;;;;;;;24.97;91.60;93059.59;5106123;28;20048;-79
2022/07/31 10:59:33;;;;;;;12.27;9.52;;;;;;;24.90;86.15;93090.78;5104068;28;20047;-79
2022/07/31 11:02:07;;;;;;;12.02;7.88;;;;;;;24.57;88.68;93062.19;5098595;28;20484;-79
2022/07/31 11:04:34;;;;;;;11.57;8.32;;;;;;;24.61;89.56;93076.22;5104563;28;20076;-79
2022/07/31 11:07:14;;;;;;;10.10;7.75;;;;;;;24.90;87.89;93078.41;5101682;28;20552;-80
2022/07/31 11:09:41;;;;;;;11.23;8.20;;;;;;;24.88;83.33;93074.53;5096334;28;20044;-79
2022/07/31 11:12:17;;;;;;;10.68;7.82;;;;;;;25.02;83.52;93032.38;5094589;28;20044;-79
2022/07/31 11:14:44;;;;;;;14.82;10.40;;;;;;;25.64;83.18;93061.47;5095467;28;20497;-80
2022/07/31 11:17:11;;;;;;;11.25;8.55;;;;;;;25.79;82.34;93052.34;5099586;28;20056;-79
2022/07/31 11:19:39;;;;;;;12.20;8.70;;;;;;;25.83;82.04;93056.66;5104151;28;20044;-79
2022/07/31 11:22:14;;;;;;;9.68;7.80;;;;;;;25.75;79.63;93065.34;5095141;28;20048;-79